createdAt,value
2023-02-17T00:01:22.351Z,300.50
2023-02-17T00:03:50.717Z,282.65
2023-02-17T00:06:19.655Z,300.13
2023-02-17T00:08:47.623Z,294.10
2023-02-17T00:11:16.055Z,281.70
2023-02-17T00:13:43.843Z,290.40
2023-02-17T00:16:14.121Z,283.05
2023-02-17T00:18:41.986Z,297.50
2023-02-17T00:21:17.323Z,288.95
2023-02-17T00:23:46.376Z,291.08
2023-02-17T00:26:15.007Z,293.15
2023-02-17T00:28:44.133Z,304.88
2023-02-17T00:31:14.441Z,300.00
2023-02-17T00:33:42.789Z,294.92
2023-02-17T00:36:17.948Z,321.00
2023-02-17T00:38:47.976Z,305.60
2023-02-17T00:41:16.891Z,303.02
2023-02-17T00:43:44.802Z,307.17
2023-02-17T00:46:12.685Z,304.77
2023-02-17T00:48:40.849Z,308.23
2023-02-17T00:51:09.176Z,299.13
2023-02-17T00:53:37.257Z,294.90
2023-02-17T00:56:05.897Z,294.02
2023-02-17T00:58:33.980Z,298.90
2023-02-17T01:01:02.609Z,303.10
2023-02-17T01:03:30.754Z,298.80
2023-02-17T01:05:58.886Z,306.02
2023-02-17T01:08:26.848Z,323.73
2023-02-17T01:10:54.649Z,302.05
2023-02-17T01:13:22.483Z,315.90
2023-02-17T01:15:52.161Z,320.77
2023-02-17T01:18:22.954Z,314.17
2023-02-17T01:20:51.948Z,326.50
2023-02-17T01:23:19.968Z,328.88
2023-02-17T01:25:49.043Z,322.70
2023-02-17T01:28:18.489Z,334.90
2023-02-17T01:30:48.168Z,333.95
2023-02-17T01:33:16.046Z,337.52
2023-02-17T01:35:43.919Z,335.08
2023-02-17T01:38:13.419Z,349.95
2023-02-17T01:40:50.078Z,332.75
2023-02-17T01:43:18.687Z,330.25
2023-02-17T01:45:56.952Z,319.83
2023-02-17T01:48:26.594Z,323.08
2023-02-17T01:50:59.541Z,327.40
2023-02-17T01:53:30.368Z,344.05
2023-02-17T01:55:58.544Z,333.85
2023-02-17T01:58:27.445Z,346.65
2023-02-17T02:00:58.915Z,328.00
2023-02-17T02:03:27.258Z,328.60
2023-02-17T02:05:55.651Z,326.70
2023-02-17T02:08:23.450Z,331.15
2023-02-17T02:10:51.266Z,319.00
2023-02-17T02:13:19.067Z,321.85
2023-02-17T02:15:55.674Z,327.98
2023-02-17T02:18:26.291Z,339.92
2023-02-17T02:21:06.419Z,331.10
2023-02-17T02:23:43.597Z,339.30
2023-02-17T02:26:11.764Z,345.05
2023-02-17T02:28:39.640Z,344.77
2023-02-17T02:31:30.499Z,333.38
2023-02-17T02:34:00.702Z,335.80
2023-02-17T02:36:58.004Z,331.83
2023-02-17T02:39:29.924Z,338.27
2023-02-17T02:41:59.787Z,336.52
2023-02-17T02:44:27.682Z,339.15
2023-02-17T02:46:58.612Z,347.35
2023-02-17T02:49:26.988Z,349.83
2023-02-17T02:52:05.890Z,344.45
2023-02-17T02:54:40.005Z,337.90
2023-02-17T02:57:14.802Z,361.40
2023-02-17T03:00:04.561Z,358.05
2023-02-17T03:02:45.901Z,378.10
2023-02-17T03:05:25.501Z,360.45
2023-02-17T03:08:02.164Z,365.02
2023-02-17T03:10:30.889Z,351.67
2023-02-17T03:12:59.030Z,356.35
2023-02-17T03:15:32.001Z,360.55
2023-02-17T03:18:01.694Z,351.02
2023-02-17T03:20:31.572Z,359.35
2023-02-17T03:23:00.009Z,345.17
2023-02-17T03:25:27.812Z,352.92
2023-02-17T03:27:55.719Z,363.02
2023-02-17T03:30:23.596Z,355.38
2023-02-17T03:32:51.459Z,343.90
2023-02-17T03:35:19.368Z,350.98
2023-02-17T03:37:47.151Z,352.88
2023-02-17T03:40:15.015Z,356.48
2023-02-17T03:42:42.838Z,346.00
2023-02-17T03:45:11.163Z,342.60
2023-02-17T03:47:38.937Z,353.27
2023-02-17T03:50:07.205Z,358.98
2023-02-17T03:52:35.015Z,348.38
2023-02-17T03:55:02.815Z,354.25
2023-02-17T03:57:31.945Z,337.08
2023-02-17T03:59:59.772Z,355.80
2023-02-17T04:02:30.427Z,351.20
2023-02-17T04:04:58.285Z,343.90
2023-02-17T04:07:26.107Z,333.48
2023-02-17T04:09:53.926Z,348.73
2023-02-17T04:12:21.743Z,339.38
2023-02-17T04:14:49.592Z,341.67
2023-02-17T04:17:17.548Z,350.33
2023-02-17T04:19:45.394Z,321.45
2023-02-17T04:22:13.193Z,337.92
2023-02-17T04:24:40.982Z,347.73
2023-02-17T04:27:09.016Z,343.23
2023-02-17T04:29:36.881Z,363.55
2023-02-17T04:32:04.921Z,364.30
2023-02-17T04:34:32.770Z,349.17
2023-02-17T04:37:00.670Z,358.80
2023-02-17T04:39:28.503Z,348.45
2023-02-17T04:41:56.346Z,342.73
2023-02-17T04:44:24.188Z,346.80
2023-02-17T04:46:51.968Z,345.50
2023-02-17T04:49:19.752Z,332.80
2023-02-17T04:51:47.601Z,338.10
2023-02-17T04:54:15.412Z,338.95
2023-02-17T04:56:43.400Z,335.10
2023-02-17T04:59:13.683Z,340.45
2023-02-17T05:01:41.535Z,329.60
2023-02-17T05:04:09.414Z,341.15
2023-02-17T05:06:37.147Z,332.80
2023-02-17T05:09:04.986Z,330.05
2023-02-17T05:11:32.810Z,331.60
2023-02-17T05:14:00.840Z,328.48
2023-02-17T05:16:30.805Z,329.55
2023-02-17T05:18:58.619Z,321.73
2023-02-17T05:21:26.421Z,318.45
2023-02-17T05:23:57.017Z,318.20
2023-02-17T05:26:25.075Z,336.98
2023-02-17T05:28:53.052Z,334.73
2023-02-17T05:31:20.969Z,339.15
2023-02-17T05:33:48.874Z,317.55
2023-02-17T05:36:16.784Z,329.33
2023-02-17T05:38:49.105Z,320.77
2023-02-17T05:41:17.145Z,302.47
2023-02-17T05:43:45.356Z,312.92
2023-02-17T05:46:13.610Z,320.20
2023-02-17T05:48:41.471Z,324.80
2023-02-17T05:51:09.357Z,324.00
2023-02-17T05:53:37.218Z,322.33
2023-02-17T05:56:05.549Z,348.90
2023-02-17T05:58:33.874Z,355.10
2023-02-17T06:01:01.905Z,341.92
2023-02-17T06:03:30.155Z,317.25
2023-02-17T06:05:57.963Z,343.05
2023-02-17T06:08:25.896Z,343.35
2023-02-17T06:10:54.140Z,338.65
2023-02-17T06:13:22.131Z,336.58
2023-02-17T06:15:49.997Z,325.95
2023-02-17T06:18:19.583Z,322.40
2023-02-17T06:20:47.815Z,321.58
2023-02-17T06:23:15.694Z,334.13
2023-02-17T06:25:43.699Z,327.73
2023-02-17T06:28:11.469Z,327.58
2023-02-17T06:30:39.303Z,343.75
2023-02-17T06:33:07.185Z,358.30
2023-02-17T06:35:34.952Z,370.20
2023-02-17T06:38:03.025Z,353.15
2023-02-17T06:40:30.971Z,336.13
2023-02-17T06:42:58.797Z,366.70
2023-02-17T06:45:26.675Z,360.52
2023-02-17T06:47:54.521Z,353.10
2023-02-17T06:50:22.387Z,351.67
2023-02-17T06:52:50.321Z,345.80
2023-02-17T06:55:18.232Z,345.60
2023-02-17T06:57:46.073Z,373.38
2023-02-17T07:00:14.020Z,384.75
2023-02-17T07:02:41.980Z,374.90
2023-02-17T07:05:09.960Z,372.27
2023-02-17T07:07:37.759Z,378.33
2023-02-17T07:10:05.857Z,374.75
2023-02-17T07:12:33.662Z,380.17
2023-02-17T07:15:01.454Z,350.33
2023-02-17T07:17:29.403Z,344.80
2023-02-17T07:19:57.266Z,356.02
2023-02-17T07:22:26.751Z,352.95
2023-02-17T07:24:54.627Z,365.83
2023-02-17T07:27:22.432Z,353.08
2023-02-17T07:29:50.260Z,360.50
2023-02-17T07:32:20.754Z,351.55
2023-02-17T07:34:48.664Z,363.63
2023-02-17T07:37:16.545Z,356.30
2023-02-17T07:39:44.294Z,362.05
2023-02-17T07:42:12.146Z,365.92
2023-02-17T07:44:40.333Z,344.40
2023-02-17T07:47:08.115Z,364.60
2023-02-17T07:49:36.009Z,356.92
2023-02-17T07:52:05.264Z,354.05
2023-02-17T07:54:33.352Z,356.45
2023-02-17T07:57:01.296Z,360.85
2023-02-17T07:59:29.261Z,333.02
2023-02-17T08:01:57.771Z,335.33
2023-02-17T08:04:25.775Z,324.58
2023-02-17T08:06:53.694Z,337.40
2023-02-17T08:09:43.381Z,305.60
2023-02-17T08:12:37.394Z,328.50
2023-02-17T08:15:09.461Z,330.35
2023-02-17T08:17:37.697Z,325.88
2023-02-17T08:20:11.539Z,323.58
2023-02-17T08:22:39.411Z,310.90
2023-02-17T08:25:07.377Z,316.08
2023-02-17T08:27:35.303Z,299.02
2023-02-17T08:30:03.595Z,287.88
2023-02-17T08:32:31.683Z,308.60
2023-02-17T08:34:59.612Z,297.42
2023-02-17T08:37:27.530Z,301.23
2023-02-17T08:39:55.293Z,287.38
2023-02-17T08:42:23.295Z,295.13
2023-02-17T08:44:51.120Z,296.52
2023-02-17T08:47:19.089Z,289.88
2023-02-17T08:49:47.146Z,289.80
2023-02-17T08:52:15.158Z,313.23
2023-02-17T08:54:42.938Z,294.05
2023-02-17T08:57:10.858Z,301.48
2023-02-17T08:59:41.049Z,305.35
2023-02-17T09:02:08.921Z,301.35
2023-02-17T09:04:36.824Z,309.02
2023-02-17T09:07:04.805Z,312.55
2023-02-17T09:09:33.755Z,303.58
2023-02-17T09:12:01.652Z,297.98
2023-02-17T09:14:29.638Z,322.63
2023-02-17T09:16:58.198Z,301.15
2023-02-17T09:19:26.475Z,310.15
2023-02-17T09:21:54.520Z,318.48
2023-02-17T09:24:24.353Z,317.63
2023-02-17T09:26:52.290Z,308.08
2023-02-17T09:29:20.170Z,327.30
2023-02-17T09:31:48.125Z,311.33
2023-02-17T09:34:16.099Z,308.75
2023-02-17T09:36:44.167Z,309.70
2023-02-17T09:39:14.186Z,293.98
2023-02-17T09:41:44.246Z,308.10
2023-02-17T09:44:19.684Z,299.33
2023-02-17T09:47:05.632Z,314.02
2023-02-17T09:49:38.003Z,311.10
2023-02-17T09:52:31.824Z,300.67
2023-02-17T09:55:05.921Z,307.65
2023-02-17T09:57:41.043Z,299.80
2023-02-17T10:00:08.988Z,307.90
2023-02-17T10:02:48.321Z,306.98
2023-02-17T10:05:19.249Z,310.45
2023-02-17T10:07:49.889Z,308.90
2023-02-17T10:10:28.913Z,300.33
2023-02-17T10:12:58.189Z,297.70
2023-02-17T10:15:28.988Z,282.75
2023-02-17T10:18:00.492Z,294.15
2023-02-17T10:20:28.257Z,285.30
2023-02-17T10:23:00.619Z,286.83
2023-02-17T10:25:48.720Z,303.45
2023-02-17T10:28:25.462Z,293.45
2023-02-17T10:31:03.357Z,297.55
2023-02-17T10:33:38.807Z,290.95
2023-02-17T10:36:09.665Z,290.27
2023-02-17T10:38:40.476Z,275.40
2023-02-17T10:41:10.738Z,289.27
2023-02-17T10:43:38.531Z,277.88
2023-02-17T10:46:08.656Z,272.10
2023-02-17T10:48:38.964Z,258.50
2023-02-17T10:51:07.285Z,274.58
2023-02-17T10:53:37.187Z,262.02
2023-02-17T10:56:05.621Z,267.67
2023-02-17T10:58:36.041Z,275.60
2023-02-17T11:01:06.301Z,262.23
2023-02-17T11:03:36.942Z,267.10
2023-02-17T11:06:07.228Z,279.02
2023-02-17T11:08:40.165Z,261.95
2023-02-17T11:11:15.018Z,260.52
2023-02-17T11:13:57.498Z,250.50
2023-02-17T11:16:29.818Z,262.10
2023-02-17T11:18:57.737Z,249.10
2023-02-17T11:21:28.730Z,254.85
2023-02-17T11:23:58.935Z,257.30
2023-02-17T11:26:28.128Z,253.68
2023-02-17T11:28:56.062Z,257.20
2023-02-17T11:31:28.208Z,255.10
2023-02-17T11:33:57.087Z,236.50
2023-02-17T11:36:29.693Z,242.90
2023-02-17T11:38:58.066Z,230.03
2023-02-17T11:41:25.869Z,236.25
2023-02-17T11:44:01.057Z,241.73
2023-02-17T11:46:34.506Z,233.32
2023-02-17T11:51:36.002Z,209.77
2023-02-17T11:54:21.929Z,199.57
2023-02-17T11:57:05.115Z,207.52
2023-02-17T11:59:52.593Z,177.90
2023-02-17T12:02:38.915Z,197.25
2023-02-17T12:05:09.878Z,149.80
2023-02-17T12:07:59.648Z,133.25
2023-02-17T12:10:38.823Z,132.30
2023-02-17T12:13:25.243Z,114.15
2023-02-17T12:15:59.474Z,112.03
2023-02-17T12:18:30.354Z,122.00
2023-02-17T12:21:04.160Z,118.22
2023-02-17T12:23:31.994Z,107.05
2023-02-17T12:26:06.639Z,101.97
2023-02-17T12:28:46.153Z,109.20
2023-02-17T12:31:26.178Z,107.35
2023-02-17T12:33:58.447Z,107.07
2023-02-17T12:36:31.958Z,101.35
2023-02-17T12:39:02.205Z,102.63
2023-02-17T12:41:37.073Z,100.68
2023-02-17T12:44:17.668Z,102.60
2023-02-17T12:46:46.823Z,101.80
2023-02-17T12:49:21.008Z,97.93
2023-02-17T12:52:07.435Z,94.95
2023-02-17T12:54:54.303Z,90.00
2023-02-17T12:57:25.227Z,87.70
2023-02-17T12:59:54.223Z,85.22
2023-02-17T13:02:24.041Z,88.70
2023-02-17T13:04:53.542Z,81.57
2023-02-17T13:07:26.624Z,82.47
2023-02-17T13:09:56.053Z,74.80
2023-02-17T13:12:23.919Z,78.50
2023-02-17T13:14:53.828Z,70.35
2023-02-17T13:17:26.910Z,59.42
2023-02-17T13:20:22.386Z,59.70
2023-02-17T13:22:50.180Z,60.40
2023-02-17T13:25:31.377Z,59.95
2023-02-17T13:28:01.143Z,58.33
2023-02-17T13:30:29.494Z,52.95
2023-02-17T13:33:08.555Z,55.80
2023-02-17T13:35:37.281Z,52.03
2023-02-17T13:38:05.152Z,57.58
2023-02-17T13:40:34.354Z,57.67
2023-02-17T13:43:15.721Z,56.00
2023-02-17T13:45:45.605Z,55.78
2023-02-17T13:48:24.344Z,51.78
2023-02-17T13:50:53.340Z,52.95
2023-02-17T13:53:27.076Z,53.83
2023-02-17T13:55:59.010Z,58.83
2023-02-17T13:58:31.438Z,53.03
2023-02-17T14:00:59.925Z,55.78
2023-02-17T14:03:34.584Z,49.70
2023-02-17T14:06:03.451Z,51.42
2023-02-17T14:08:41.069Z,51.05
2023-02-17T14:11:17.480Z,42.15
2023-02-17T14:13:47.174Z,49.42
2023-02-17T14:16:32.066Z,50.25
2023-02-17T14:19:05.674Z,45.22
2023-02-17T14:21:34.056Z,45.78
2023-02-17T14:24:01.952Z,45.95
2023-02-17T14:26:37.701Z,43.92
2023-02-17T14:29:07.469Z,39.75
2023-02-17T14:31:39.690Z,46.78
2023-02-17T14:34:09.158Z,44.38
2023-02-17T14:36:38.006Z,47.47
2023-02-17T14:39:07.640Z,42.53
2023-02-17T14:41:35.508Z,39.50
2023-02-17T14:44:06.780Z,43.53
2023-02-17T14:46:35.208Z,42.20
2023-02-17T14:49:03.260Z,44.88
2023-02-17T14:51:34.936Z,45.67
2023-02-17T14:54:13.384Z,47.45
2023-02-17T14:56:47.449Z,50.72
2023-02-17T14:59:15.227Z,42.38
2023-02-17T15:01:43.091Z,52.28
2023-02-17T15:04:10.931Z,47.75
2023-02-17T15:06:41.134Z,47.38
2023-02-17T15:09:13.110Z,46.47
2023-02-17T15:11:42.584Z,44.47
2023-02-17T15:14:14.793Z,46.58
2023-02-17T15:16:45.612Z,42.65
2023-02-17T15:19:14.275Z,39.10
2023-02-17T15:21:47.233Z,43.53
2023-02-17T15:24:19.880Z,45.58
2023-02-17T15:26:48.167Z,41.50
2023-02-17T15:29:17.454Z,43.47
2023-02-17T15:31:47.110Z,42.13
2023-02-17T15:34:20.022Z,37.58
2023-02-17T15:36:48.034Z,40.35
2023-02-17T15:39:17.731Z,41.72
2023-02-17T15:41:47.756Z,38.15
2023-02-17T15:44:20.448Z,40.38
2023-02-17T15:46:50.664Z,40.47
2023-02-17T15:49:18.664Z,41.75
2023-02-17T15:51:49.373Z,42.75
2023-02-17T15:54:19.416Z,40.90
2023-02-17T15:56:49.069Z,37.83
2023-02-17T15:59:19.183Z,41.63
2023-02-17T16:01:47.051Z,39.00
2023-02-17T16:04:15.503Z,51.28
2023-02-17T16:06:43.388Z,48.05
2023-02-17T16:09:11.626Z,55.15
2023-02-17T16:11:57.573Z,58.45
2023-02-17T16:14:28.424Z,57.33
2023-02-17T16:16:56.386Z,62.55
2023-02-17T16:19:24.235Z,54.20
2023-02-17T16:21:52.209Z,56.08
2023-02-17T16:24:20.104Z,57.78
2023-02-17T16:26:48.026Z,75.72
2023-02-17T16:29:20.106Z,77.55
2023-02-17T16:31:48.597Z,55.75
2023-02-17T16:34:17.437Z,58.92
2023-02-17T16:36:45.451Z,58.67
2023-02-17T16:39:15.399Z,50.28
2023-02-17T16:41:43.412Z,56.58
2023-02-17T16:44:14.883Z,50.78
2023-02-17T16:46:47.184Z,51.60
2023-02-17T16:49:24.660Z,52.80
2023-02-17T16:51:52.943Z,58.35
2023-02-17T16:54:20.812Z,59.90
2023-02-17T16:56:50.001Z,62.67
2023-02-17T16:59:19.925Z,54.88
2023-02-17T17:01:48.171Z,61.42
2023-02-17T17:04:16.154Z,52.00
2023-02-17T17:06:46.454Z,54.83
2023-02-17T17:09:19.449Z,49.38
2023-02-17T17:11:50.595Z,51.30
2023-02-17T17:14:20.660Z,55.85
2023-02-17T17:16:54.900Z,51.53
2023-02-17T17:21:50.456Z,53.67
2023-02-17T17:24:18.309Z,50.85
2023-02-17T17:26:47.363Z,57.38
2023-02-17T17:29:16.960Z,58.08
2023-02-17T17:31:45.246Z,58.53
2023-02-17T17:34:13.196Z,54.92
2023-02-17T17:36:42.242Z,58.70
2023-02-17T17:39:14.754Z,80.85
2023-02-17T17:41:42.796Z,83.70
2023-02-17T17:44:10.664Z,82.20
2023-02-17T17:46:39.217Z,79.47
2023-02-17T17:49:10.290Z,76.70
2023-02-17T17:51:38.689Z,80.25
2023-02-17T17:54:07.318Z,70.03
2023-02-17T17:56:36.411Z,69.40
2023-02-17T17:59:04.557Z,70.13
2023-02-17T18:01:32.977Z,69.65
2023-02-17T18:04:01.631Z,67.50
2023-02-17T18:06:31.285Z,67.63
2023-02-17T18:09:01.728Z,67.35
2023-02-17T18:11:29.910Z,68.85
2023-02-17T18:13:59.053Z,68.72
2023-02-17T18:16:28.100Z,71.10
2023-02-17T18:18:57.026Z,76.45
2023-02-17T18:21:28.102Z,77.60
2023-02-17T18:23:55.982Z,83.97
2023-02-17T18:26:24.174Z,89.22
2023-02-17T18:28:51.975Z,81.72
2023-02-17T18:31:19.926Z,84.18
2023-02-17T18:33:47.844Z,83.65
2023-02-17T18:36:17.282Z,86.25
2023-02-17T18:38:45.914Z,96.15
2023-02-17T18:41:20.625Z,100.93
2023-02-17T18:43:48.981Z,90.30
2023-02-17T18:46:17.045Z,87.00
2023-02-17T18:48:45.009Z,87.47
2023-02-17T18:51:15.670Z,86.55
2023-02-17T18:53:43.921Z,84.97
2023-02-17T18:56:15.797Z,92.15
2023-02-17T18:58:43.635Z,95.93
2023-02-17T19:01:22.076Z,103.82
2023-02-17T19:03:50.014Z,101.32
2023-02-17T19:06:19.373Z,89.25
2023-02-17T19:08:47.709Z,91.20
2023-02-17T19:11:16.634Z,96.30
2023-02-17T19:13:44.867Z,96.93
2023-02-17T19:16:17.415Z,95.75
2023-02-17T19:18:45.908Z,98.72
2023-02-17T19:21:13.972Z,99.13
2023-02-17T19:23:42.307Z,101.38
2023-02-17T19:26:11.159Z,99.15
2023-02-17T19:28:39.896Z,99.28
2023-02-17T19:31:11.877Z,109.75
2023-02-17T19:33:40.077Z,99.50
2023-02-17T19:36:11.813Z,104.30
2023-02-17T19:38:39.874Z,101.85
2023-02-17T19:41:09.128Z,103.13
2023-02-17T19:43:36.948Z,118.63
2023-02-17T19:46:05.299Z,110.32
2023-02-17T19:48:34.414Z,112.38
2023-02-17T19:51:03.912Z,112.03
2023-02-17T19:53:31.856Z,105.53
2023-02-17T19:56:11.999Z,108.07
2023-02-17T19:58:41.103Z,111.43
2023-02-17T20:01:10.050Z,107.25
2023-02-17T20:03:38.315Z,109.05
2023-02-17T20:06:07.263Z,108.05
2023-02-17T20:08:35.510Z,117.90
2023-02-17T20:11:07.944Z,110.13
2023-02-17T20:13:45.238Z,122.82
2023-02-17T20:16:15.213Z,117.80
2023-02-17T20:18:44.770Z,124.82
2023-02-17T20:21:15.741Z,120.93
2023-02-17T20:23:43.669Z,124.53
2023-02-17T20:26:16.470Z,124.75
2023-02-17T20:28:44.313Z,129.02
2023-02-17T20:31:12.251Z,129.40
2023-02-17T20:33:40.441Z,132.35
2023-02-17T20:36:13.035Z,130.93
2023-02-17T20:38:41.038Z,145.73
2023-02-17T20:41:09.946Z,138.68
2023-02-17T20:43:38.556Z,135.93
2023-02-17T20:46:07.167Z,145.52
2023-02-17T20:48:35.267Z,143.13
2023-02-17T20:51:06.053Z,145.10
2023-02-17T20:53:33.902Z,144.45
2023-02-17T20:56:01.924Z,144.52
2023-02-17T20:58:29.813Z,141.40
2023-02-17T21:00:57.817Z,152.55
2023-02-17T21:03:25.684Z,140.52
2023-02-17T21:05:53.522Z,143.32
2023-02-17T21:08:21.315Z,142.85
2023-02-17T21:10:49.147Z,143.88
2023-02-17T21:13:16.911Z,143.95
2023-02-17T21:15:45.102Z,140.48
2023-02-17T21:18:13.379Z,139.88
2023-02-17T21:20:43.473Z,139.27
2023-02-17T21:23:11.316Z,141.20
2023-02-17T21:25:39.243Z,145.65
2023-02-17T21:28:07.032Z,139.32
2023-02-17T21:30:34.847Z,134.10
2023-02-17T21:33:02.780Z,130.82
2023-02-17T21:35:30.576Z,136.82
2023-02-17T21:37:58.411Z,147.90
2023-02-17T21:40:26.208Z,143.00
2023-02-17T21:43:12.730Z,150.10
2023-02-17T21:45:40.632Z,156.25
2023-02-17T21:48:08.540Z,151.98
2023-02-17T21:50:36.549Z,152.30
2023-02-17T21:53:04.409Z,159.25
2023-02-17T21:55:32.762Z,154.55
2023-02-17T21:58:00.558Z,154.00
2023-02-17T22:00:28.401Z,148.32
2023-02-17T22:02:56.591Z,157.93
2023-02-17T22:05:24.399Z,157.70
2023-02-17T22:07:52.199Z,162.43
2023-02-17T22:10:20.503Z,158.63
2023-02-17T22:12:48.316Z,155.98
2023-02-17T22:15:16.285Z,160.63
2023-02-17T22:17:44.200Z,158.20
2023-02-17T22:20:12.297Z,156.55
2023-02-17T22:22:40.159Z,147.50
2023-02-17T22:25:09.318Z,152.80
2023-02-17T22:27:37.134Z,149.07
2023-02-17T22:30:05.429Z,144.25
2023-02-17T22:32:33.253Z,145.45
2023-02-17T22:35:01.116Z,147.57
2023-02-17T22:37:28.898Z,145.85
2023-02-17T22:39:57.951Z,148.35
2023-02-17T22:42:25.830Z,150.52
2023-02-17T22:44:53.609Z,151.40
2023-02-17T22:47:21.774Z,148.30
2023-02-17T22:49:51.680Z,155.75
2023-02-17T22:52:19.522Z,151.25
2023-02-17T22:54:48.418Z,148.60
2023-02-17T22:57:18.586Z,152.95
2023-02-17T22:59:46.456Z,145.73
2023-02-17T23:02:14.488Z,141.60
2023-02-17T23:04:43.049Z,146.52
2023-02-17T23:07:11.123Z,150.27
2023-02-17T23:09:42.083Z,147.25
2023-02-17T23:12:09.901Z,153.55
2023-02-17T23:14:41.095Z,146.13
2023-02-17T23:17:12.855Z,146.63
2023-02-17T23:19:41.689Z,144.43
2023-02-17T23:22:14.337Z,151.13
2023-02-17T23:24:43.085Z,148.02
2023-02-17T23:27:11.775Z,149.10
2023-02-17T23:29:40.723Z,134.25
2023-02-17T23:32:08.645Z,146.13
2023-02-17T23:34:36.625Z,139.50
2023-02-17T23:37:04.479Z,138.07
2023-02-17T23:39:32.264Z,138.73
2023-02-17T23:42:00.093Z,144.00
2023-02-17T23:44:28.062Z,146.55
2023-02-17T23:46:55.851Z,146.80
2023-02-17T23:49:23.623Z,136.70
2023-02-17T23:51:51.405Z,138.27
2023-02-17T23:54:19.155Z,150.35
2023-02-17T23:56:47.522Z,152.30
2023-02-17T23:59:15.356Z,158.85
